Webcam Flughafen St.Gallen-Altenrhein

Live-Bilder und Zeitraffer LSZR / ACH.

 

Live aus Altenrhein
LIVE
LSZR 091220Z AUTO 28005KT 9999 NCD 17/04 Q1024
Zeitraffer heute
2020-04-09 00:13:53
LSZR 082150Z AUTO 25006KT CAVOK 12/06 Q1023